Marathon Airport
CYSP : now visible

Airfield :











YOU CAN JOIN US ON...

 
LOGIN :

Register | Disclaimer

   EN    FR    IT 

 









Legend :    VFR   Marginal VFR   IFR   Intensive IFR   Very Intensive IFR
Visi :
Ceiling :
>= 8 km
>= 3000ft
5 to 8 km
1000 to 3000 ft
1500m to 5 km
500 to 1000 ft
800 to 1500m
200 to 500 ft
< 800m
< 200 ft
Symbols :   Thunderstorms  Fog  Heavy snow  Heavy precipitations  Wind > 20 kt






- Airport Elevation : 1035 ft
- IATA code : YSP


CYSP - Marathon

CURRENT METAR :
  • 081900Z 18003KT 110V220 7SM SCT007 OVC008 19/17 A2993 RMK SC4SC4 BR SLP140 DENSITY ALT 1700FT

EXPIRED METARs :
  • 081843Z 17007KT 140V200 8SM SCT007 OVC008 19/17 A2993 RMK SC3SC5 BR SLP139 DENSITY ALT 1700FT
  • 081800Z 18009G15KT 10SM SCT008 OVC010 19/17 A2993 RMK SC4SC4 HZ SLP139 DENSITY ALT 1700FT
  • 081703Z 19010KT 130V220 10SM FEW009 SCT010 BKN011 OVC014 19/16 A2994 RMK SC1SC3SC3SC1 HZ SLP142 DENSITY ALT 1700FT

TAF AMD TAF CYSP
Valid from the 08 at 19:00 until the 08 at 21:00 UTC


081903Z 0819/0821 18007KT P6SM SCT008 BKN030
TEMPO 0819/0821 5SM -RA BR BKN008 RMK NXT FCST WILL BE ISSUED AT 091345Z
CZYZ FIR / North America



MET'MAP, your aeronautical weather chart ! - Copyright ORBIFLY December 2007 - Disclaimer

ORBIFLY MET'MAP TEAM :

Programming & Development : Alexandra Zaïnal
Concept & original design : Baudouin d'Aumeries
Assistance for programming : Marc-Olivier Méhu
Technical & hardware support : Manuel Goepfert

Contact : metmap@orbifly.com




SOURCES & CREDITS :

   NOAA       Earth
Advisory